Time;durP1;ratioP1;P1;durP2;ratioP2;P2;SDS_P1;SDS_P2;PMS_P1;PMS_P2;Temp;Humidity;BMP_temperature;BMP_pressure;BME280_temperature;BME280_humidity;BME280_pressure;Samples;Min_cycle;Max_cycle;Signal;HPM_P1;HPM_P2
2022/04/24 00:01:41;;;;;;;19.90;14.80;;;10.30;99.90;;;;;;5018593;28;20210;-86
2022/04/24 00:04:07;;;;;;;18.43;15.00;;;10.20;99.90;;;;;;5018721;28;20197;-86
2022/04/24 00:06:34;;;;;;;18.60;15.27;;;10.00;99.90;;;;;;5011731;28;20229;-85
2022/04/24 00:09:01;;;;;;;19.23;15.67;;;10.10;99.90;;;;;;4998813;28;20582;-86
2022/04/24 00:11:29;;;;;;;18.97;14.67;;;10.00;99.90;;;;;;4998835;28;20183;-86
2022/04/24 00:13:57;;;;;;;18.93;15.23;;;10.00;99.90;;;;;;5015609;28;20261;-86
2022/04/24 00:16:23;;;;;;;17.97;14.90;;;10.00;99.90;;;;;;5024765;28;20192;-86
2022/04/24 00:18:49;;;;;;;18.17;14.33;;;9.90;99.90;;;;;;5034716;28;20189;-85
2022/04/24 00:21:15;;;;;;;19.93;14.87;;;9.90;99.90;;;;;;4999059;28;20210;-86
2022/04/24 00:23:44;;;;;;;17.03;14.30;;;9.90;99.90;;;;;;5015076;28;20191;-85
2022/04/24 00:26:10;;;;;;;17.10;13.70;;;10.00;99.90;;;;;;5013593;28;20232;-86
2022/04/24 00:28:37;;;;;;;18.20;14.50;;;10.00;99.90;;;;;;5023791;28;20202;-86
2022/04/24 00:31:03;;;;;;;16.80;13.63;;;10.00;99.90;;;;;;5006954;28;20206;-86
2022/04/24 00:33:29;;;;;;;18.23;14.13;;;10.10;99.90;;;;;;5023203;28;20242;-85
2022/04/24 00:35:54;;;;;;;18.30;14.17;;;10.10;99.90;;;;;;5015544;28;20183;-86
2022/04/24 00:38:22;;;;;;;16.93;14.13;;;10.10;99.90;;;;;;5024018;28;20209;-85
2022/04/24 00:40:48;;;;;;;19.90;15.00;;;10.20;99.90;;;;;;5023437;28;20209;-86
2022/04/24 00:43:15;;;;;;;19.30;15.60;;;10.10;99.90;;;;;;5018403;28;20209;-86
2022/04/24 00:46:36;;;;;;;18.23;14.73;;;10.10;99.90;;;;;;5037750;28;20205;-85
2022/04/24 00:49:02;;;;;;;18.60;15.50;;;10.10;99.90;;;;;;5033772;28;20269;-85
2022/04/24 00:51:29;;;;;;;17.57;14.47;;;10.10;99.90;;;;;;5034247;28;20181;-85
2022/04/24 00:54:22;;;;;;;19.03;14.67;;;10.10;99.90;;;;;;5017551;28;20233;-86
2022/04/24 00:56:48;;;;;;;18.73;14.97;;;10.10;99.90;;;;;;5052511;28;20245;-85
2022/04/24 00:59:17;;;;;;;20.40;15.13;;;10.10;99.90;;;;;;5021582;28;20269;-85
2022/04/24 01:01:43;;;;;;;18.97;14.27;;;10.10;99.90;;;;;;5037811;28;20221;-85
2022/04/24 01:04:11;;;;;;;18.63;15.73;;;10.10;99.90;;;;;;5037768;28;20204;-85
2022/04/24 01:06:40;;;;;;;19.23;16.03;;;10.10;99.90;;;;;;5013849;28;20187;-86
2022/04/24 01:09:14;;;;;;;21.40;15.03;;;10.10;99.90;;;;;;5018211;28;20175;-85
2022/04/24 01:11:41;;;;;;;18.50;14.67;;;10.20;99.90;;;;;;5001912;28;20230;-85
2022/04/24 01:14:08;;;;;;;17.23;14.03;;;10.20;99.90;;;;;;5001333;28;20697;-86
2022/04/24 01:16:35;;;;;;;17.27;14.60;;;10.20;99.90;;;;;;5001194;28;20252;-86
2022/04/24 01:19:02;;;;;;;17.33;14.50;;;10.20;99.90;;;;;;5017664;28;20316;-86
2022/04/24 01:21:28;;;;;;;15.50;13.77;;;10.20;99.90;;;;;;5001304;28;20287;-85
2022/04/24 01:23:54;;;;;;;18.73;14.80;;;10.10;99.90;;;;;;5001216;28;20206;-85
2022/04/24 01:26:20;;;;;;;17.63;14.73;;;10.10;99.90;;;;;;5001655;28;20182;-85
2022/04/24 01:28:45;;;;;;;17.37;14.57;;;10.10;99.90;;;;;;5001073;28;20179;-85
2022/04/24 01:31:11;;;;;;;18.37;14.83;;;10.10;99.90;;;;;;5001336;28;20177;-85
2022/04/24 01:33:37;;;;;;;17.83;14.23;;;10.00;99.90;;;;;;5001465;28;20202;-85
2022/04/24 01:36:03;;;;;;;17.10;14.20;;;10.00;99.90;;;;;;5014818;28;20210;-86
2022/04/24 01:38:29;;;;;;;18.83;15.13;;;10.00;99.90;;;;;;4997959;28;20207;-85
2022/04/24 01:40:55;;;;;;;16.87;14.63;;;10.00;99.90;;;;;;4997392;28;20668;-86
2022/04/24 01:43:21;;;;;;;18.43;15.47;;;10.00;99.90;;;;;;4997922;28;20207;-85
2022/04/24 01:45:47;;;;;;;18.13;14.60;;;10.10;99.90;;;;;;4997731;28;20183;-85
2022/04/24 01:48:13;;;;;;;18.53;15.10;;;10.10;99.90;;;;;;4997982;28;20294;-85
2022/04/24 01:50:39;;;;;;;20.57;16.37;;;10.10;99.90;;;;;;4997445;28;20218;-85
2022/04/24 01:53:05;;;;;;;19.43;15.80;;;10.10;99.90;;;;;;5013802;28;20191;-85
2022/04/24 01:55:31;;;;;;;18.97;15.27;;;10.10;99.90;;;;;;4997262;28;20214;-85
2022/04/24 01:57:57;;;;;;;20.27;15.93;;;10.10;99.90;;;;;;4997436;28;20199;-85
2022/04/24 02:00:36;;;;;;;17.00;14.90;;;10.00;99.90;;;;;;4997264;28;20191;-85
2022/04/24 02:03:02;;;;;;;21.23;15.63;;;10.10;99.90;;;;;;4981059;28;20199;-85
2022/04/24 02:05:28;;;;;;;19.50;15.90;;;10.10;99.90;;;;;;4997597;28;20225;-85
2022/04/24 02:07:54;;;;;;;19.47;15.90;;;10.10;99.90;;;;;;4997347;28;20187;-85
2022/04/24 02:10:20;;;;;;;19.90;15.33;;;10.00;99.90;;;;;;4996280;28;20171;-85
2022/04/24 02:12:46;;;;;;;20.73;15.87;;;10.10;99.90;;;;;;4997623;28;20241;-85
2022/04/24 02:15:12;;;;;;;22.40;16.70;;;10.10;99.90;;;;;;4999547;28;20195;-85
2022/04/24 02:17:38;;;;;;;19.70;16.40;;;10.10;99.90;;;;;;5016700;28;20194;-85
2022/04/24 02:20:05;;;;;;;22.57;17.60;;;10.00;99.90;;;;;;5008281;28;20195;-85
2022/04/24 02:22:32;;;;;;;21.73;17.13;;;10.10;99.90;;;;;;5002777;28;20214;-85
2022/04/24 02:24:58;;;;;;;22.43;17.17;;;10.10;99.90;;;;;;4986026;28;20225;-85
2022/04/24 02:27:24;;;;;;;20.73;17.30;;;10.10;99.90;;;;;;4997083;28;20688;-85
2022/04/24 02:29:49;;;;;;;22.33;17.30;;;10.20;99.90;;;;;;4996977;28;20207;-85
2022/04/24 02:32:15;;;;;;;21.53;17.50;;;10.20;99.90;;;;;;4997125;28;20186;-85
2022/04/24 02:34:41;;;;;;;20.33;16.87;;;10.20;99.90;;;;;;4996765;28;20222;-85
2022/04/24 02:37:07;;;;;;;21.83;17.10;;;10.20;99.90;;;;;;4996735;28;20263;-85
2022/04/24 02:39:33;;;;;;;20.33;16.50;;;10.10;99.90;;;;;;4996875;28;20318;-85
2022/04/24 02:41:59;;;;;;;22.03;17.33;;;10.10;99.90;;;;;;4996750;28;20207;-85
2022/04/24 02:44:25;;;;;;;21.93;16.17;;;10.00;99.90;;;;;;4996480;28;20257;-85
2022/04/24 02:46:51;;;;;;;20.37;16.77;;;10.10;99.90;;;;;;4996593;28;20179;-85
2022/04/24 02:49:17;;;;;;;22.27;17.83;;;10.00;99.90;;;;;;4996212;28;20180;-85
2022/04/24 02:51:42;;;;;;;21.00;16.97;;;10.00;99.90;;;;;;5012646;28;20179;-85
2022/04/24 02:54:08;;;;;;;21.40;17.30;;;10.00;99.90;;;;;;4996167;28;20210;-85
2022/04/24 02:56:34;;;;;;;20.93;17.07;;;10.00;99.90;;;;;;4996662;28;20255;-85
2022/04/24 02:59:00;;;;;;;23.00;17.97;;;9.90;99.90;;;;;;4996048;28;20187;-85
2022/04/24 03:01:26;;;;;;;22.13;17.33;;;9.90;99.90;;;;;;4996194;28;20206;-85
2022/04/24 03:03:52;;;;;;;21.03;17.23;;;9.90;99.90;;;;;;4996404;28;20668;-85
2022/04/24 03:06:18;;;;;;;22.00;17.70;;;10.00;99.90;;;;;;5012854;28;20178;-85
2022/04/24 03:08:46;;;;;;;22.00;17.67;;;10.00;99.90;;;;;;4996369;28;20176;-85
2022/04/24 03:11:12;;;;;;;21.87;17.23;;;10.00;99.90;;;;;;4996013;28;20699;-85
2022/04/24 03:14:17;;;;;;;23.43;18.53;;;10.00;99.90;;;;;;4995831;28;20294;-85
2022/04/24 03:16:43;;;;;;;22.20;18.40;;;10.10;99.90;;;;;;4995804;28;20206;-85
2022/04/24 03:19:09;;;;;;;22.27;17.50;;;10.10;99.90;;;;;;4996093;28;20210;-85
2022/04/24 03:21:35;;;;;;;22.97;17.97;;;10.00;99.90;;;;;;4996104;28;20215;-86
2022/04/24 03:24:00;;;;;;;23.43;18.03;;;10.00;99.90;;;;;;4995823;28;20258;-85
2022/04/24 03:26:26;;;;;;;23.23;18.20;;;10.10;99.90;;;;;;4996289;28;20241;-85
2022/04/24 03:28:52;;;;;;;25.00;18.70;;;10.10;99.90;;;;;;4995729;28;20183;-86
2022/04/24 03:31:18;;;;;;;23.87;18.93;;;10.10;99.90;;;;;;4995579;28;20175;-85
2022/04/24 03:33:44;;;;;;;26.30;20.10;;;10.10;99.90;;;;;;4995822;28;20210;-85
2022/04/24 03:36:10;;;;;;;23.53;19.57;;;10.00;99.90;;;;;;4995797;28;20240;-85
2022/04/24 03:38:36;;;;;;;27.83;19.77;;;10.00;99.90;;;;;;5018343;28;20266;-85
2022/04/24 03:41:02;;;;;;;26.80;21.13;;;10.00;99.90;;;;;;5019536;28;20181;-86
2022/04/24 03:43:28;;;;;;;25.43;19.83;;;10.00;99.90;;;;;;4995791;28;20218;-85
2022/04/24 03:45:53;;;;;;;26.60;20.30;;;10.00;99.90;;;;;;4995665;28;20220;-85
2022/04/24 03:48:19;;;;;;;25.00;19.83;;;10.00;99.90;;;;;;5011951;28;20235;-85
2022/04/24 03:50:45;;;;;;;31.63;23.80;;;10.00;99.90;;;;;;4995712;28;20400;-85
2022/04/24 03:53:12;;;;;;;29.83;21.93;;;9.90;99.90;;;;;;4995404;28;20194;-85
2022/04/24 03:55:38;;;;;;;29.70;22.27;;;9.80;99.90;;;;;;5011739;28;20199;-85
2022/04/24 03:58:05;;;;;;;32.87;22.00;;;9.80;99.90;;;;;;4995456;28;20183;-85
2022/04/24 04:00:43;;;;;;;30.03;22.50;;;9.70;99.90;;;;;;4994952;28;20182;-85
2022/04/24 04:03:08;;;;;;;30.17;21.43;;;9.70;99.90;;;;;;4995721;28;20214;-85
2022/04/24 04:05:38;;;;;;;24.27;17.60;;;9.70;99.90;;;;;;4995216;28;20202;-85
2022/04/24 04:08:04;;;;;;;10.10;8.40;;;9.60;99.90;;;;;;4998847;28;20232;-85
2022/04/24 04:10:30;;;;;;;11.53;8.27;;;9.60;99.90;;;;;;5014751;28;20240;-85
2022/04/24 04:12:57;;;;;;;5.83;4.13;;;9.60;99.90;;;;;;4998598;28;20186;-85
2022/04/24 04:15:24;;;;;;;2.00;1.80;;;9.50;99.90;;;;;;4998938;28;20201;-85
2022/04/24 04:17:50;;;;;;;1.30;1.03;;;9.30;99.90;;;;;;4999035;28;20205;-85
2022/04/24 04:20:16;;;;;;;1.07;1.00;;;9.20;99.90;;;;;;5030955;28;20191;-85
2022/04/24 04:22:53;;;;;;;4.50;1.07;;;9.10;99.90;;;;;;5014917;28;20300;-85
2022/04/24 04:25:19;;;;;;;1.27;0.70;;;9.00;99.90;;;;;;5015192;28;20190;-85
2022/04/24 04:27:46;;;;;;;0.67;0.67;;;8.90;99.90;;;;;;5015153;28;20181;-85
2022/04/24 04:30:12;;;;;;;1.40;0.60;;;8.80;99.90;;;;;;5014586;28;20253;-85
2022/04/24 04:32:37;;;;;;;0.47;0.40;;;8.80;99.90;;;;;;5016833;28;20698;-85
2022/04/24 04:35:05;;;;;;;0.50;0.50;;;8.70;99.90;;;;;;5002271;28;20204;-85
2022/04/24 04:37:32;;;;;;;0.93;0.50;;;8.60;99.90;;;;;;5033466;28;20194;-85
2022/04/24 04:39:58;;;;;;;2.00;0.73;;;8.60;99.90;;;;;;5021758;28;20179;-85
2022/04/24 04:42:24;;;;;;;1.70;0.43;;;8.50;99.90;;;;;;5021802;28;20215;-85
2022/04/24 04:44:50;;;;;;;1.93;0.40;;;8.50;99.90;;;;;;5021610;28;20293;-85
2022/04/24 04:47:16;;;;;;;0.43;0.43;;;8.50;99.90;;;;;;5021888;28;20211;-85
2022/04/24 04:49:42;;;;;;;0.70;0.50;;;8.50;99.90;;;;;;5021521;28;20177;-85
2022/04/24 04:52:08;;;;;;;2.33;0.47;;;8.50;99.90;;;;;;5038042;28;20188;-85
2022/04/24 04:54:34;;;;;;;0.63;0.33;;;8.40;99.90;;;;;;5021823;28;20208;-85
2022/04/24 04:57:00;;;;;;;1.77;0.50;;;8.40;99.90;;;;;;5021735;28;20235;-85
2022/04/24 04:59:26;;;;;;;0.77;0.50;;;8.40;99.90;;;;;;5021857;28;20220;-85
2022/04/24 05:01:52;;;;;;;1.90;0.70;;;8.30;99.90;;;;;;5021151;28;20213;-86
2022/04/24 05:04:17;;;;;;;1.40;1.30;;;8.30;99.90;;;;;;5021695;28;20195;-86
2022/04/24 05:06:43;;;;;;;1.30;1.20;;;8.30;99.90;;;;;;5013034;28;20189;-86
2022/04/24 05:09:09;;;;;;;1.20;0.80;;;8.40;99.90;;;;;;5017927;28;20188;-86
2022/04/24 05:11:35;;;;;;;1.73;1.03;;;8.40;99.90;;;;;;5001619;28;20234;-86
2022/04/24 05:14:01;;;;;;;0.80;0.40;;;8.40;99.90;;;;;;5018253;28;20225;-86
2022/04/24 05:16:27;;;;;;;0.93;0.50;;;8.40;99.90;;;;;;5017662;28;20182;-86
2022/04/24 05:18:53;;;;;;;0.40;0.30;;;8.40;99.90;;;;;;5017683;28;20200;-86
2022/04/24 05:21:19;;;;;;;0.30;0.30;;;8.40;99.90;;;;;;5017786;28;20185;-86
2022/04/24 05:24:04;;;;;;;1.93;0.50;;;8.40;99.90;;;;;;5017310;28;20207;-86
2022/04/24 05:26:31;;;;;;;0.37;0.37;;;8.40;99.90;;;;;;5018029;28;20184;-85
2022/04/24 05:28:57;;;;;;;1.70;0.30;;;8.40;99.90;;;;;;5001535;28;20182;-86
2022/04/24 05:31:23;;;;;;;0.80;0.40;;;8.40;99.90;;;;;;5017857;28;20184;-86
2022/04/24 05:33:49;;;;;;;2.37;0.43;;;8.30;99.90;;;;;;5017565;28;20213;-86
2022/04/24 05:36:15;;;;;;;1.10;0.33;;;8.30;99.90;;;;;;5012985;28;20183;-86
2022/04/24 05:38:41;;;;;;;1.87;0.50;;;8.30;99.90;;;;;;4981998;28;20178;-86
2022/04/24 05:41:06;;;;;;;0.37;0.33;;;8.30;99.90;;;;;;5014398;28;20194;-85
2022/04/24 05:43:32;;;;;;;0.30;0.30;;;8.20;99.90;;;;;;4980301;28;20211;-86
2022/04/24 05:45:58;;;;;;;0.63;0.30;;;8.20;99.90;;;;;;4997845;28;20240;-86
2022/04/24 05:48:24;;;;;;;0.53;0.50;;;8.20;99.90;;;;;;4981597;28;20177;-85
2022/04/24 05:50:50;;;;;;;0.47;0.37;;;8.20;99.90;;;;;;4981250;28;20178;-85
2022/04/24 05:53:16;;;;;;;0.63;0.30;;;8.20;99.90;;;;;;4997524;28;20177;-86
2022/04/24 05:55:42;;;;;;;0.97;0.50;;;8.20;99.90;;;;;;4981139;28;20201;-86
2022/04/24 05:58:08;;;;;;;0.60;0.60;;;8.20;99.90;;;;;;4997531;28;20186;-86
2022/04/24 06:00:36;;;;;;;1.77;0.33;;;8.20;99.90;;;;;;5013638;28;20182;-85
2022/04/24 06:03:02;;;;;;;0.80;0.33;;;8.20;99.90;;;;;;4980615;28;20229;-86
2022/04/24 06:05:28;;;;;;;0.50;0.50;;;8.20;99.90;;;;;;4981029;28;20679;-86
2022/04/24 06:07:55;;;;;;;0.40;0.30;;;8.20;99.90;;;;;;4981380;28;20186;-86
2022/04/24 06:10:21;;;;;;;0.60;0.20;;;8.20;99.90;;;;;;4980827;28;20605;-85
2022/04/24 06:12:52;;;;;;;0.43;0.30;;;8.20;99.90;;;;;;4997413;28;20191;-85
2022/04/24 06:15:21;;;;;;;0.70;0.40;;;8.20;99.90;;;;;;4981034;28;20222;-86
2022/04/24 06:17:58;;;;;;;1.67;0.60;;;8.20;99.90;;;;;;4981113;28;20200;-86
2022/04/24 06:20:25;;;;;;;0.87;0.30;;;8.20;99.90;;;;;;5013197;28;20166;-86
2022/04/24 06:22:56;;;;;;;1.67;1.00;;;8.20;99.90;;;;;;4980960;28;20211;-86
2022/04/24 06:25:33;;;;;;;0.83;0.83;;;8.20;99.90;;;;;;4980791;28;20210;-85
2022/04/24 06:28:00;;;;;;;0.53;0.53;;;8.20;99.90;;;;;;5013501;28;20169;-85
2022/04/24 06:30:28;;;;;;;0.50;0.50;;;8.20;99.90;;;;;;4980660;28;20182;-86
2022/04/24 06:32:56;;;;;;;1.07;0.70;;;8.20;99.90;;;;;;4980485;28;20286;-86
2022/04/24 06:35:22;;;;;;;1.30;0.90;;;8.20;99.90;;;;;;4980813;28;20305;-86
2022/04/24 06:37:57;;;;;;;1.17;0.60;;;8.20;99.90;;;;;;4980449;28;20197;-86
2022/04/24 06:40:24;;;;;;;1.37;0.60;;;8.20;99.90;;;;;;4996548;28;20196;-86
2022/04/24 06:43:04;;;;;;;1.00;0.40;;;8.20;99.90;;;;;;5012935;28;20207;-86
2022/04/24 06:45:41;;;;;;;1.77;0.80;;;8.20;99.90;;;;;;5013728;28;20217;-85
2022/04/24 06:48:12;;;;;;;1.80;0.90;;;8.30;99.90;;;;;;4996688;28;20192;-86
2022/04/24 06:50:43;;;;;;;1.13;0.80;;;8.20;99.90;;;;;;4996496;28;20182;-85
2022/04/24 06:53:20;;;;;;;0.50;0.50;;;8.30;99.90;;;;;;4996724;28;20175;-85
2022/04/24 06:55:48;;;;;;;1.57;0.60;;;8.30;99.90;;;;;;4996059;28;20173;-86
2022/04/24 06:58:17;;;;;;;0.77;0.70;;;8.40;99.90;;;;;;4996453;28;20655;-85
2022/04/24 07:00:44;;;;;;;1.23;0.57;;;8.40;99.90;;;;;;4995548;28;20178;-86
2022/04/24 07:03:16;;;;;;;1.37;1.10;;;8.40;99.90;;;;;;5012820;28;20237;-86
2022/04/24 07:05:42;;;;;;;1.47;1.00;;;8.40;99.90;;;;;;5013177;28;20195;-85
2022/04/24 07:08:09;;;;;;;1.10;1.00;;;8.40;99.90;;;;;;5000104;28;20196;-86
2022/04/24 07:10:35;;;;;;;2.10;0.70;;;8.40;99.90;;;;;;5019883;28;20259;-85
2022/04/24 07:13:03;;;;;;;1.17;0.60;;;8.40;99.90;;;;;;5012865;28;20207;-85
2022/04/24 07:15:30;;;;;;;1.70;0.70;;;8.40;99.90;;;;;;4996383;28;20210;-86
2022/04/24 07:17:57;;;;;;;0.80;0.80;;;8.40;99.90;;;;;;4995961;28;20728;-86
2022/04/24 07:20:30;;;;;;;1.60;0.77;;;8.40;99.90;;;;;;4995698;28;20183;-86
2022/04/24 07:23:00;;;;;;;1.37;0.80;;;8.50;99.90;;;;;;4995733;28;20220;-85
2022/04/24 07:25:27;;;;;;;1.17;0.83;;;8.50;99.90;;;;;;4995858;28;20202;-86
2022/04/24 07:27:57;;;;;;;1.13;0.70;;;8.50;99.90;;;;;;4997145;28;20182;-86
2022/04/24 07:30:42;;;;;;;1.30;0.80;;;8.60;99.90;;;;;;4999147;28;20189;-86
2022/04/24 07:33:09;;;;;;;2.67;0.90;;;8.60;99.90;;;;;;4999582;28;20185;-86
2022/04/24 07:35:38;;;;;;;3.10;1.30;;;8.70;99.90;;;;;;5014014;28;20227;-86
2022/04/24 07:38:04;;;;;;;1.77;1.43;;;8.70;99.90;;;;;;5018781;28;20216;-86
2022/04/24 07:40:33;;;;;;;2.03;1.20;;;8.70;99.90;;;;;;5018587;28;20189;-86
2022/04/24 07:43:04;;;;;;;2.23;1.90;;;8.70;99.90;;;;;;5018963;28;20223;-86
2022/04/24 07:45:39;;;;;;;2.70;1.87;;;8.80;99.90;;;;;;5018931;28;20201;-86
2022/04/24 07:48:07;;;;;;;1.37;1.20;;;8.80;99.90;;;;;;5015871;28;20178;-86
2022/04/24 07:50:35;;;;;;;1.10;1.00;;;8.80;99.90;;;;;;5017708;28;20264;-86
2022/04/24 07:53:02;;;;;;;1.57;1.13;;;8.70;99.90;;;;;;5034709;28;20186;-85
2022/04/24 07:55:29;;;;;;;1.40;1.30;;;8.70;99.90;;;;;;5017142;28;20613;-86
2022/04/24 07:58:00;;;;;;;1.43;1.33;;;8.80;99.90;;;;;;5014840;28;20565;-86
2022/04/24 08:00:28;;;;;;;1.40;1.30;;;8.80;99.90;;;;;;5018814;28;20632;-85
2022/04/24 08:03:05;;;;;;;1.83;1.20;;;8.80;99.90;;;;;;5018225;28;20270;-86
2022/04/24 08:05:40;;;;;;;1.30;0.90;;;8.80;99.90;;;;;;5018190;28;20247;-86
2022/04/24 08:08:08;;;;;;;1.60;0.90;;;8.80;99.90;;;;;;4998319;28;20272;-85
2022/04/24 08:10:37;;;;;;;2.33;1.40;;;8.90;99.90;;;;;;5020487;28;20173;-86
2022/04/24 08:13:05;;;;;;;2.03;1.20;;;8.80;99.90;;;;;;5007898;28;20240;-86
2022/04/24 08:15:34;;;;;;;2.70;1.80;;;8.80;99.90;;;;;;4998777;28;20206;-86
2022/04/24 08:18:01;;;;;;;2.87;1.60;;;8.90;99.90;;;;;;5014978;28;20189;-86
2022/04/24 08:20:28;;;;;;;1.70;1.20;;;8.90;99.90;;;;;;5012021;28;20185;-86
2022/04/24 08:22:57;;;;;;;1.70;0.90;;;9.00;99.90;;;;;;5001954;28;20216;-86
2022/04/24 08:25:26;;;;;;;0.90;0.90;;;9.00;99.90;;;;;;5014847;28;20225;-85
2022/04/24 08:27:54;;;;;;;2.07;1.50;;;9.00;99.90;;;;;;4998785;28;20628;-86
2022/04/24 08:30:22;;;;;;;2.20;1.70;;;9.10;99.90;;;;;;4998737;28;20650;-86
2022/04/24 08:32:48;;;;;;;3.67;2.77;;;9.10;99.90;;;;;;4995469;28;20258;-86
2022/04/24 08:35:16;;;;;;;4.37;2.53;;;9.10;99.90;;;;;;4979270;28;20206;-86
2022/04/24 08:37:44;;;;;;;3.70;3.00;;;9.20;99.90;;;;;;4987487;28;20278;-85
2022/04/24 08:40:14;;;;;;;5.27;3.80;;;9.10;99.90;;;;;;4989582;28;20184;-86
2022/04/24 08:42:42;;;;;;;8.93;6.53;;;9.20;99.90;;;;;;5014812;28;20197;-85
2022/04/24 08:45:13;;;;;;;8.67;6.87;;;9.10;99.90;;;;;;5008681;28;20194;-86
2022/04/24 08:47:41;;;;;;;5.40;4.20;;;9.20;99.90;;;;;;5010536;28;20186;-86
2022/04/24 08:50:13;;;;;;;3.00;2.07;;;9.10;99.90;;;;;;5007024;28;20175;-86
2022/04/24 08:53:18;;;;;;;2.10;1.90;;;9.20;99.90;;;;;;4998615;28;20192;-86
2022/04/24 08:55:48;;;;;;;2.17;1.83;;;9.20;99.90;;;;;;4998507;28;20184;-85
2022/04/24 08:58:14;;;;;;;1.90;1.63;;;9.20;99.90;;;;;;5014629;28;20233;-85
2022/04/24 09:00:43;;;;;;;3.00;1.90;;;9.30;99.90;;;;;;5014435;28;20221;-86
2022/04/24 09:03:10;;;;;;;1.80;1.40;;;9.30;99.90;;;;;;4995599;28;20924;-86
2022/04/24 09:05:37;;;;;;;3.33;1.50;;;9.30;99.90;;;;;;5032233;28;20287;-85
2022/04/24 09:08:24;;;;;;;2.97;1.60;;;9.40;99.90;;;;;;5022916;28;20174;-86
2022/04/24 09:10:55;;;;;;;2.87;1.73;;;9.40;99.90;;;;;;5003344;28;20177;-86
2022/04/24 09:13:32;;;;;;;1.67;1.40;;;9.40;99.90;;;;;;4994021;28;20182;-85
2022/04/24 09:16:00;;;;;;;2.83;2.03;;;9.40;99.90;;;;;;4998821;28;20217;-85
2022/04/24 09:18:41;;;;;;;1.80;1.50;;;9.40;99.90;;;;;;5002328;28;20261;-85
2022/04/24 09:21:10;;;;;;;2.87;2.20;;;9.50;99.90;;;;;;5021450;28;20193;-84
2022/04/24 09:23:37;;;;;;;2.00;1.73;;;9.50;99.90;;;;;;5011586;28;20206;-85
2022/04/24 09:26:04;;;;;;;1.60;1.50;;;9.60;99.90;;;;;;5001441;28;20182;-85
2022/04/24 09:28:40;;;;;;;2.43;1.30;;;9.60;99.90;;;;;;5007331;28;20174;-85
2022/04/24 09:31:30;;;;;;;1.60;1.10;;;9.50;99.90;;;;;;5020538;28;20181;-85
2022/04/24 09:33:56;;;;;;;1.63;1.30;;;9.60;99.90;;;;;;5008442;28;20194;-85
2022/04/24 09:36:41;;;;;;;2.10;1.00;;;9.60;99.90;;;;;;5017628;28;20181;-85
2022/04/24 09:39:07;;;;;;;1.37;1.17;;;9.60;99.90;;;;;;5001018;28;20193;-85
2022/04/24 09:41:33;;;;;;;1.40;1.30;;;9.60;99.90;;;;;;5000982;28;20175;-85
2022/04/24 09:44:14;;;;;;;2.10;1.60;;;9.60;99.90;;;;;;5017335;28;20297;-85
2022/04/24 09:46:41;;;;;;;1.77;1.10;;;9.60;99.90;;;;;;5000506;28;20281;-84
2022/04/24 09:49:10;;;;;;;5.13;2.30;;;9.70;99.90;;;;;;5000908;28;20262;-84
2022/04/24 09:51:43;;;;;;;1.77;1.50;;;9.70;99.90;;;;;;5028829;28;20170;-91
2022/04/24 09:54:11;;;;;;;3.20;2.10;;;9.70;99.90;;;;;;5010848;28;20641;-84
2022/04/24 09:56:40;;;;;;;3.97;3.13;;;9.80;99.90;;;;;;5011955;28;20179;-85
2022/04/24 09:59:07;;;;;;;3.60;1.90;;;9.90;99.90;;;;;;4997479;28;20187;-84
2022/04/24 10:01:35;;;;;;;3.03;2.00;;;9.90;99.90;;;;;;5013163;28;20192;-85
2022/04/24 10:04:07;;;;;;;1.77;1.30;;;9.90;99.90;;;;;;5013891;28;20560;-85
2022/04/24 10:06:34;;;;;;;1.53;1.30;;;10.00;99.90;;;;;;5023226;28;20175;-85
2022/04/24 10:09:01;;;;;;;1.10;1.10;;;9.90;99.90;;;;;;5030325;28;20197;-85
2022/04/24 10:11:30;;;;;;;1.83;1.60;;;10.00;99.90;;;;;;5028103;28;20174;-85
2022/04/24 10:14:04;;;;;;;1.23;1.13;;;10.10;99.90;;;;;;5017546;28;20202;-85
2022/04/24 10:16:54;;;;;;;1.27;1.17;;;10.10;99.90;;;;;;5015484;28;20200;-85
2022/04/24 10:20:01;;;;;;;1.10;0.97;;;10.00;99.90;;;;;;5009684;28;20182;-85
2022/04/24 10:22:39;;;;;;;1.30;1.20;;;10.10;99.90;;;;;;4977076;28;20283;-85
2022/04/24 10:25:30;;;;;;;1.20;1.10;;;10.10;99.90;;;;;;4996434;28;20203;-85
2022/04/24 10:28:18;;;;;;;3.00;0.90;;;10.20;99.90;;;;;;5000328;28;20189;-85
2022/04/24 10:31:03;;;;;;;3.33;1.60;;;10.30;99.90;;;;;;5016802;28;20185;-85
2022/04/24 10:33:56;;;;;;;2.07;1.57;;;10.30;99.90;;;;;;5017006;28;20166;-85
2022/04/24 10:36:23;;;;;;;1.30;1.20;;;10.30;99.90;;;;;;4995336;28;20206;-86
2022/04/24 10:38:59;;;;;;;0.97;0.90;;;10.30;99.90;;;;;;5019936;28;20191;-85
2022/04/24 10:41:29;;;;;;;0.87;0.87;;;10.30;99.90;;;;;;5016325;28;20269;-85
2022/04/24 10:47:55;;;;;;;0.80;0.80;;;10.20;99.90;;;;;;5028312;28;20250;-85
2022/04/24 10:50:22;;;;;;;2.57;1.57;;;10.20;99.90;;;;;;5033450;28;20251;-84
2022/04/24 10:53:11;;;;;;;1.60;1.50;;;10.30;99.90;;;;;;5016166;28;20209;-85
2022/04/24 10:55:37;;;;;;;1.83;1.30;;;10.30;99.90;;;;;;5011724;28;20218;-85
2022/04/24 10:58:04;;;;;;;2.00;1.20;;;10.30;99.90;;;;;;5003116;28;20192;-85
2022/04/24 11:00:34;;;;;;;1.40;1.30;;;10.30;99.90;;;;;;5033795;28;20186;-85
2022/04/24 11:03:37;;;;;;;2.40;1.50;;;10.30;99.90;;;;;;4992876;28;20234;-85
2022/04/24 11:06:02;;;;;;;1.87;1.40;;;10.30;99.90;;;;;;5016140;28;20218;-85
2022/04/24 11:08:28;;;;;;;3.13;2.30;;;10.30;99.90;;;;;;5012653;28;20199;-85
2022/04/24 11:11:04;;;;;;;3.87;2.43;;;10.40;99.90;;;;;;5003717;28;20227;-85
2022/04/24 11:13:31;;;;;;;2.87;2.43;;;10.50;99.90;;;;;;5022873;28;20244;-86
2022/04/24 11:16:00;;;;;;;2.97;2.10;;;10.50;99.90;;;;;;4996427;28;20187;-86
2022/04/24 11:18:27;;;;;;;1.90;1.70;;;10.50;99.90;;;;;;5032176;28;20197;-85
2022/04/24 11:21:04;;;;;;;4.47;2.40;;;10.50;99.90;;;;;;5033339;28;20273;-86
2022/04/24 11:23:40;;;;;;;2.33;2.03;;;10.60;99.90;;;;;;5010349;28;20261;-86
2022/04/24 11:26:12;;;;;;;1.33;1.23;;;10.50;99.90;;;;;;5009993;28;20169;-85
2022/04/24 11:28:45;;;;;;;1.80;1.40;;;10.40;99.90;;;;;;5000237;28;20174;-86
2022/04/24 11:34:37;;;;;;;2.13;1.57;;;10.40;99.90;;;;;;5015025;28;20207;-86
2022/04/24 11:37:05;;;;;;;1.77;1.40;;;10.40;99.90;;;;;;5004957;28;20198;-86
2022/04/24 11:39:32;;;;;;;0.80;0.80;;;10.40;99.90;;;;;;5008346;28;20232;-86
2022/04/24 11:41:58;;;;;;;1.87;1.10;;;10.40;99.90;;;;;;5004681;28;20253;-86
2022/04/24 11:50:15;;;;;;;1.90;1.20;;;10.40;99.90;;;;;;5029500;28;20228;-78
2022/04/24 11:52:57;;;;;;;1.30;1.20;;;10.40;99.90;;;;;;5027049;28;20301;-79
2022/04/24 11:58:23;;;;;;;3.07;1.90;;;10.50;99.90;;;;;;5017387;28;20271;-85
2022/04/24 12:01:00;;;;;;;2.10;1.40;;;10.60;99.90;;;;;;5028292;28;20166;-87
2022/04/24 12:03:28;;;;;;;1.37;1.27;;;10.70;99.90;;;;;;4997623;28;20282;-86
2022/04/24 12:06:01;;;;;;;2.90;1.27;;;10.70;99.90;;;;;;5015514;28;20181;-86
2022/04/24 12:08:46;;;;;;;1.10;1.00;;;10.60;99.90;;;;;;5024926;28;20638;-86
2022/04/24 12:11:28;;;;;;;1.13;0.80;;;10.60;99.90;;;;;;4999015;28;20167;-86
2022/04/24 12:14:15;;;;;;;1.00;0.90;;;10.60;99.90;;;;;;4998703;28;20232;-86
2022/04/24 12:16:47;;;;;;;1.10;0.70;;;10.70;99.90;;;;;;5019903;28;20186;-85
2022/04/24 12:19:18;;;;;;;1.77;1.10;;;10.60;99.90;;;;;;5004150;28;20236;-86
2022/04/24 12:21:51;;;;;;;1.93;1.40;;;10.60;99.90;;;;;;4999396;28;20183;-86
2022/04/24 12:24:18;;;;;;;1.30;0.70;;;10.60;99.90;;;;;;5044837;28;20214;-86
2022/04/24 12:26:48;;;;;;;1.40;0.97;;;10.60;99.90;;;;;;5010746;28;20189;-85
2022/04/24 12:29:17;;;;;;;2.00;1.80;;;10.60;99.90;;;;;;4998895;28;20190;-86
2022/04/24 12:31:47;;;;;;;1.50;1.40;;;10.60;99.90;;;;;;5022441;28;20181;-86
2022/04/24 12:34:14;;;;;;;1.73;1.10;;;10.50;99.90;;;;;;5006079;28;20207;-86
2022/04/24 12:36:48;;;;;;;1.10;1.00;;;10.50;99.90;;;;;;4996556;28;20210;-86
2022/04/24 12:39:28;;;;;;;2.00;0.90;;;10.60;99.90;;;;;;5019109;28;20189;-86
2022/04/24 12:41:54;;;;;;;0.70;0.70;;;10.60;99.90;;;;;;4999178;28;20675;-86
2022/04/24 12:44:20;;;;;;;0.70;0.70;;;10.60;99.90;;;;;;5022937;28;20700;-86
2022/04/24 12:46:49;;;;;;;1.63;1.10;;;10.60;99.90;;;;;;5010502;28;20227;-86
2022/04/24 12:49:26;;;;;;;2.30;1.53;;;10.60;99.90;;;;;;5003011;28;20175;-86
2022/04/24 12:51:52;;;;;;;2.13;1.83;;;10.60;99.90;;;;;;5025624;28;20178;-86
2022/04/24 12:54:18;;;;;;;1.73;1.20;;;10.80;99.90;;;;;;5027021;28;20198;-87
2022/04/24 12:56:44;;;;;;;1.60;1.00;;;10.80;99.90;;;;;;5028378;28;20190;-86
2022/04/24 12:59:11;;;;;;;2.53;1.70;;;10.90;99.90;;;;;;5004063;28;20195;-86
2022/04/24 13:01:44;;;;;;;0.87;0.80;;;11.00;99.90;;;;;;5008249;28;20179;-86
2022/04/24 13:04:11;;;;;;;1.80;1.40;;;11.10;99.90;;;;;;5014838;28;20195;-86
2022/04/24 13:06:37;;;;;;;0.80;0.80;;;11.10;99.90;;;;;;5002508;28;20190;-86
2022/04/24 13:09:04;;;;;;;0.70;0.70;;;11.30;99.90;;;;;;5019885;28;20187;-86
2022/04/24 13:11:30;;;;;;;1.33;1.23;;;11.30;99.90;;;;;;5018032;28;20182;-86
2022/04/24 13:13:56;;;;;;;1.10;1.00;;;11.40;99.90;;;;;;5014844;28;20222;-86